sensor_id;sensor_type;location;lat;lon;timestamp;P1;durP1;ratioP1;P2;durP2;ratioP2
17363;SDS011;8799;43.594;13.526;2022-08-03T00:01:09;4.27;;;2.30;;
17363;SDS011;8799;43.594;13.526;2022-08-03T00:03:38;3.70;;;2.10;;
17363;SDS011;8799;43.594;13.526;2022-08-03T00:06:09;3.67;;;2.10;;
17363;SDS011;8799;43.594;13.526;2022-08-03T00:08:38;3.37;;;2.33;;
17363;SDS011;8799;43.594;13.526;2022-08-03T00:11:05;3.07;;;2.23;;
17363;SDS011;8799;43.594;13.526;2022-08-03T00:13:33;3.90;;;2.37;;
17363;SDS011;8799;43.594;13.526;2022-08-03T00:16:01;2.37;;;1.90;;
17363;SDS011;8799;43.594;13.526;2022-08-03T00:18:29;4.23;;;2.10;;
17363;SDS011;8799;43.594;13.526;2022-08-03T00:20:58;2.30;;;2.00;;
17363;SDS011;8799;43.594;13.526;2022-08-03T00:23:27;2.23;;;2.00;;
17363;SDS011;8799;43.594;13.526;2022-08-03T00:25:54;3.93;;;2.30;;
17363;SDS011;8799;43.594;13.526;2022-08-03T00:28:22;3.80;;;2.40;;
17363;SDS011;8799;43.594;13.526;2022-08-03T00:30:50;3.73;;;2.27;;
17363;SDS011;8799;43.594;13.526;2022-08-03T00:33:17;3.73;;;2.40;;
17363;SDS011;8799;43.594;13.526;2022-08-03T00:35:45;2.90;;;2.10;;
17363;SDS011;8799;43.594;13.526;2022-08-03T00:38:14;2.23;;;2.03;;
17363;SDS011;8799;43.594;13.526;2022-08-03T00:40:42;2.30;;;2.10;;
17363;SDS011;8799;43.594;13.526;2022-08-03T00:43:09;2.90;;;2.27;;
17363;SDS011;8799;43.594;13.526;2022-08-03T00:45:38;4.80;;;2.50;;
17363;SDS011;8799;43.594;13.526;2022-08-03T00:48:08;3.23;;;1.93;;
17363;SDS011;8799;43.594;13.526;2022-08-03T00:50:38;4.07;;;2.17;;
17363;SDS011;8799;43.594;13.526;2022-08-03T00:53:09;6.23;;;2.93;;
17363;SDS011;8799;43.594;13.526;2022-08-03T00:55:39;2.50;;;2.23;;
17363;SDS011;8799;43.594;13.526;2022-08-03T00:58:06;2.40;;;2.20;;
17363;SDS011;8799;43.594;13.526;2022-08-03T01:00:35;4.97;;;2.47;;
17363;SDS011;8799;43.594;13.526;2022-08-03T01:03:04;2.87;;;2.43;;
17363;SDS011;8799;43.594;13.526;2022-08-03T01:05:35;2.70;;;2.40;;
17363;SDS011;8799;43.594;13.526;2022-08-03T01:08:11;2.50;;;2.07;;
17363;SDS011;8799;43.594;13.526;2022-08-03T01:10:49;4.87;;;2.40;;
17363;SDS011;8799;43.594;13.526;2022-08-03T01:13:25;2.70;;;2.37;;
17363;SDS011;8799;43.594;13.526;2022-08-03T01:15:57;3.63;;;2.47;;
17363;SDS011;8799;43.594;13.526;2022-08-03T01:18:31;3.37;;;2.43;;
17363;SDS011;8799;43.594;13.526;2022-08-03T01:23:53;3.83;;;2.80;;
17363;SDS011;8799;43.594;13.526;2022-08-03T01:29:33;3.50;;;2.30;;
17363;SDS011;8799;43.594;13.526;2022-08-03T01:32:17;4.33;;;2.43;;
17363;SDS011;8799;43.594;13.526;2022-08-03T01:34:50;7.07;;;2.87;;
17363;SDS011;8799;43.594;13.526;2022-08-03T01:37:25;4.17;;;2.50;;
17363;SDS011;8799;43.594;13.526;2022-08-03T01:40:02;3.43;;;2.20;;
17363;SDS011;8799;43.594;13.526;2022-08-03T01:42:32;3.90;;;2.43;;
17363;SDS011;8799;43.594;13.526;2022-08-03T01:45:04;2.60;;;2.23;;
17363;SDS011;8799;43.594;13.526;2022-08-03T01:47:36;2.33;;;2.13;;
17363;SDS011;8799;43.594;13.526;2022-08-03T01:50:09;3.83;;;2.40;;
17363;SDS011;8799;43.594;13.526;2022-08-03T01:52:39;2.53;;;2.27;;
17363;SDS011;8799;43.594;13.526;2022-08-03T01:55:10;2.10;;;1.90;;
17363;SDS011;8799;43.594;13.526;2022-08-03T01:57:39;2.50;;;2.20;;
17363;SDS011;8799;43.594;13.526;2022-08-03T02:00:12;3.37;;;2.07;;
17363;SDS011;8799;43.594;13.526;2022-08-03T02:02:40;3.00;;;2.13;;
17363;SDS011;8799;43.594;13.526;2022-08-03T02:05:09;2.07;;;1.87;;
17363;SDS011;8799;43.594;13.526;2022-08-03T02:07:40;1.93;;;1.73;;
17363;SDS011;8799;43.594;13.526;2022-08-03T02:10:10;2.83;;;1.93;;
17363;SDS011;8799;43.594;13.526;2022-08-03T02:12:40;4.27;;;2.70;;
17363;SDS011;8799;43.594;13.526;2022-08-03T02:15:11;2.67;;;2.00;;
17363;SDS011;8799;43.594;13.526;2022-08-03T02:17:42;3.20;;;2.20;;
17363;SDS011;8799;43.594;13.526;2022-08-03T02:20:11;2.47;;;2.20;;
17363;SDS011;8799;43.594;13.526;2022-08-03T02:22:41;3.07;;;2.30;;
17363;SDS011;8799;43.594;13.526;2022-08-03T02:25:10;2.00;;;1.80;;
17363;SDS011;8799;43.594;13.526;2022-08-03T02:27:42;3.70;;;2.20;;
17363;SDS011;8799;43.594;13.526;2022-08-03T02:30:16;2.53;;;2.00;;
17363;SDS011;8799;43.594;13.526;2022-08-03T02:32:49;6.03;;;2.27;;
17363;SDS011;8799;43.594;13.526;2022-08-03T02:35:21;2.80;;;2.30;;
17363;SDS011;8799;43.594;13.526;2022-08-03T02:37:51;2.23;;;1.70;;
17363;SDS011;8799;43.594;13.526;2022-08-03T02:40:23;3.97;;;2.03;;
17363;SDS011;8799;43.594;13.526;2022-08-03T02:42:54;2.20;;;1.90;;
17363;SDS011;8799;43.594;13.526;2022-08-03T02:45:35;3.27;;;1.93;;
17363;SDS011;8799;43.594;13.526;2022-08-03T02:48:08;2.33;;;2.00;;
17363;SDS011;8799;43.594;13.526;2022-08-03T02:50:37;2.97;;;1.90;;
17363;SDS011;8799;43.594;13.526;2022-08-03T02:53:06;2.27;;;2.07;;
17363;SDS011;8799;43.594;13.526;2022-08-03T02:55:35;2.43;;;2.00;;
17363;SDS011;8799;43.594;13.526;2022-08-03T02:58:05;2.27;;;1.90;;
17363;SDS011;8799;43.594;13.526;2022-08-03T03:00:35;2.10;;;1.83;;
17363;SDS011;8799;43.594;13.526;2022-08-03T03:03:05;2.33;;;1.77;;
17363;SDS011;8799;43.594;13.526;2022-08-03T03:05:33;2.77;;;1.80;;
17363;SDS011;8799;43.594;13.526;2022-08-03T03:08:03;3.23;;;2.10;;
17363;SDS011;8799;43.594;13.526;2022-08-03T03:10:31;1.67;;;1.57;;
17363;SDS011;8799;43.594;13.526;2022-08-03T03:12:59;2.60;;;1.80;;
17363;SDS011;8799;43.594;13.526;2022-08-03T03:15:28;2.40;;;1.70;;
17363;SDS011;8799;43.594;13.526;2022-08-03T03:17:58;1.73;;;1.60;;
17363;SDS011;8799;43.594;13.526;2022-08-03T03:20:27;2.00;;;1.80;;
17363;SDS011;8799;43.594;13.526;2022-08-03T03:22:57;3.93;;;1.70;;
17363;SDS011;8799;43.594;13.526;2022-08-03T03:25:25;3.63;;;1.80;;
17363;SDS011;8799;43.594;13.526;2022-08-03T03:27:54;1.80;;;1.50;;
17363;SDS011;8799;43.594;13.526;2022-08-03T03:30:22;2.80;;;1.70;;
17363;SDS011;8799;43.594;13.526;2022-08-03T03:32:51;1.93;;;1.77;;
17363;SDS011;8799;43.594;13.526;2022-08-03T03:35:20;1.60;;;1.50;;
17363;SDS011;8799;43.594;13.526;2022-08-03T03:37:48;2.23;;;1.70;;
17363;SDS011;8799;43.594;13.526;2022-08-03T03:40:16;2.30;;;1.60;;
17363;SDS011;8799;43.594;13.526;2022-08-03T03:42:44;2.20;;;1.70;;
17363;SDS011;8799;43.594;13.526;2022-08-03T03:45:12;1.97;;;1.80;;
17363;SDS011;8799;43.594;13.526;2022-08-03T03:47:40;1.83;;;1.57;;
17363;SDS011;8799;43.594;13.526;2022-08-03T03:50:08;1.90;;;1.80;;
17363;SDS011;8799;43.594;13.526;2022-08-03T03:52:38;2.27;;;1.60;;
17363;SDS011;8799;43.594;13.526;2022-08-03T03:55:06;3.03;;;1.50;;
17363;SDS011;8799;43.594;13.526;2022-08-03T03:57:34;3.90;;;1.50;;
17363;SDS011;8799;43.594;13.526;2022-08-03T04:00:02;8.07;;;1.70;;
17363;SDS011;8799;43.594;13.526;2022-08-03T04:02:31;2.13;;;1.50;;
17363;SDS011;8799;43.594;13.526;2022-08-03T04:04:58;1.80;;;1.70;;
17363;SDS011;8799;43.594;13.526;2022-08-03T04:07:45;2.83;;;1.50;;
17363;SDS011;8799;43.594;13.526;2022-08-03T04:10:37;2.87;;;1.80;;
17363;SDS011;8799;43.594;13.526;2022-08-03T04:13:26;2.97;;;1.70;;
17363;SDS011;8799;43.594;13.526;2022-08-03T04:15:56;1.80;;;1.70;;
17363;SDS011;8799;43.594;13.526;2022-08-03T04:18:25;2.60;;;1.90;;
17363;SDS011;8799;43.594;13.526;2022-08-03T04:20:55;2.07;;;1.70;;
17363;SDS011;8799;43.594;13.526;2022-08-03T04:23:26;2.23;;;1.63;;
17363;SDS011;8799;43.594;13.526;2022-08-03T04:25:55;3.10;;;1.60;;
17363;SDS011;8799;43.594;13.526;2022-08-03T04:28:25;2.60;;;1.73;;
17363;SDS011;8799;43.594;13.526;2022-08-03T04:30:54;2.70;;;1.90;;
17363;SDS011;8799;43.594;13.526;2022-08-03T04:33:23;2.40;;;1.60;;
17363;SDS011;8799;43.594;13.526;2022-08-03T04:35:52;1.70;;;1.60;;
17363;SDS011;8799;43.594;13.526;2022-08-03T04:38:23;3.00;;;1.83;;
17363;SDS011;8799;43.594;13.526;2022-08-03T04:40:55;3.00;;;1.77;;
17363;SDS011;8799;43.594;13.526;2022-08-03T04:43:23;2.83;;;1.73;;
17363;SDS011;8799;43.594;13.526;2022-08-03T04:45:51;3.03;;;1.93;;
17363;SDS011;8799;43.594;13.526;2022-08-03T04:48:20;3.27;;;2.30;;
17363;SDS011;8799;43.594;13.526;2022-08-03T04:50:48;5.77;;;2.00;;
17363;SDS011;8799;43.594;13.526;2022-08-03T04:53:16;2.83;;;1.80;;
17363;SDS011;8799;43.594;13.526;2022-08-03T04:55:45;2.23;;;1.80;;
17363;SDS011;8799;43.594;13.526;2022-08-03T04:58:13;2.23;;;1.90;;
17363;SDS011;8799;43.594;13.526;2022-08-03T05:01:03;3.93;;;1.90;;
17363;SDS011;8799;43.594;13.526;2022-08-03T05:03:31;2.83;;;1.77;;
17363;SDS011;8799;43.594;13.526;2022-08-03T05:05:58;2.43;;;1.97;;
17363;SDS011;8799;43.594;13.526;2022-08-03T05:08:26;3.90;;;1.93;;
17363;SDS011;8799;43.594;13.526;2022-08-03T05:10:55;1.77;;;1.63;;
17363;SDS011;8799;43.594;13.526;2022-08-03T05:13:24;2.60;;;1.90;;
17363;SDS011;8799;43.594;13.526;2022-08-03T05:15:51;2.40;;;1.80;;
17363;SDS011;8799;43.594;13.526;2022-08-03T05:18:20;2.67;;;2.00;;
17363;SDS011;8799;43.594;13.526;2022-08-03T05:20:48;10.23;;;2.50;;
17363;SDS011;8799;43.594;13.526;2022-08-03T05:23:20;6.43;;;2.00;;
17363;SDS011;8799;43.594;13.526;2022-08-03T05:25:47;2.97;;;2.00;;
17363;SDS011;8799;43.594;13.526;2022-08-03T05:28:17;5.77;;;2.00;;
17363;SDS011;8799;43.594;13.526;2022-08-03T05:30:45;3.23;;;2.30;;
17363;SDS011;8799;43.594;13.526;2022-08-03T05:33:13;4.63;;;2.17;;
17363;SDS011;8799;43.594;13.526;2022-08-03T05:35:41;3.83;;;1.93;;
17363;SDS011;8799;43.594;13.526;2022-08-03T05:38:09;3.37;;;1.90;;
17363;SDS011;8799;43.594;13.526;2022-08-03T05:40:37;3.43;;;2.03;;
17363;SDS011;8799;43.594;13.526;2022-08-03T05:43:05;4.40;;;2.10;;
17363;SDS011;8799;43.594;13.526;2022-08-03T05:45:34;5.20;;;2.17;;
17363;SDS011;8799;43.594;13.526;2022-08-03T05:48:03;2.30;;;1.90;;
17363;SDS011;8799;43.594;13.526;2022-08-03T05:50:31;2.27;;;1.87;;
17363;SDS011;8799;43.594;13.526;2022-08-03T05:53:00;3.73;;;2.30;;
17363;SDS011;8799;43.594;13.526;2022-08-03T05:55:27;3.87;;;1.97;;
17363;SDS011;8799;43.594;13.526;2022-08-03T05:57:55;2.07;;;1.87;;
17363;SDS011;8799;43.594;13.526;2022-08-03T06:00:23;2.80;;;2.37;;
17363;SDS011;8799;43.594;13.526;2022-08-03T06:02:53;3.77;;;1.80;;
17363;SDS011;8799;43.594;13.526;2022-08-03T06:05:20;5.50;;;2.13;;
17363;SDS011;8799;43.594;13.526;2022-08-03T06:07:51;3.23;;;2.43;;
17363;SDS011;8799;43.594;13.526;2022-08-03T06:10:19;4.43;;;2.47;;
17363;SDS011;8799;43.594;13.526;2022-08-03T06:12:47;2.40;;;2.00;;
17363;SDS011;8799;43.594;13.526;2022-08-03T06:15:15;3.97;;;2.37;;
17363;SDS011;8799;43.594;13.526;2022-08-03T06:17:44;2.70;;;2.17;;
17363;SDS011;8799;43.594;13.526;2022-08-03T06:20:14;4.50;;;2.00;;
17363;SDS011;8799;43.594;13.526;2022-08-03T06:22:43;4.03;;;2.30;;
17363;SDS011;8799;43.594;13.526;2022-08-03T06:25:11;3.07;;;2.10;;
17363;SDS011;8799;43.594;13.526;2022-08-03T06:27:38;2.70;;;1.90;;
17363;SDS011;8799;43.594;13.526;2022-08-03T06:30:07;3.70;;;2.40;;
17363;SDS011;8799;43.594;13.526;2022-08-03T06:32:36;3.53;;;2.27;;
17363;SDS011;8799;43.594;13.526;2022-08-03T06:35:04;3.03;;;2.33;;
17363;SDS011;8799;43.594;13.526;2022-08-03T06:37:41;3.73;;;2.37;;
17363;SDS011;8799;43.594;13.526;2022-08-03T06:40:10;2.87;;;2.27;;
17363;SDS011;8799;43.594;13.526;2022-08-03T06:42:39;3.17;;;2.30;;
17363;SDS011;8799;43.594;13.526;2022-08-03T06:45:07;2.40;;;2.20;;
17363;SDS011;8799;43.594;13.526;2022-08-03T06:47:35;4.07;;;2.70;;
17363;SDS011;8799;43.594;13.526;2022-08-03T06:50:03;3.00;;;2.10;;
17363;SDS011;8799;43.594;13.526;2022-08-03T06:52:31;5.53;;;2.53;;
17363;SDS011;8799;43.594;13.526;2022-08-03T06:55:01;4.40;;;2.77;;
17363;SDS011;8799;43.594;13.526;2022-08-03T06:57:29;4.07;;;2.50;;
17363;SDS011;8799;43.594;13.526;2022-08-03T06:59:57;8.43;;;2.40;;
17363;SDS011;8799;43.594;13.526;2022-08-03T07:02:26;3.13;;;2.37;;
17363;SDS011;8799;43.594;13.526;2022-08-03T07:04:54;5.20;;;2.57;;
17363;SDS011;8799;43.594;13.526;2022-08-03T07:07:22;3.73;;;2.50;;
17363;SDS011;8799;43.594;13.526;2022-08-03T07:09:50;3.30;;;2.67;;
17363;SDS011;8799;43.594;13.526;2022-08-03T07:12:19;3.53;;;2.23;;
17363;SDS011;8799;43.594;13.526;2022-08-03T07:14:48;6.00;;;2.60;;
17363;SDS011;8799;43.594;13.526;2022-08-03T07:17:16;3.47;;;2.37;;
17363;SDS011;8799;43.594;13.526;2022-08-03T07:19:44;4.47;;;2.27;;
17363;SDS011;8799;43.594;13.526;2022-08-03T07:22:12;3.63;;;2.20;;
17363;SDS011;8799;43.594;13.526;2022-08-03T07:24:39;3.50;;;2.37;;
17363;SDS011;8799;43.594;13.526;2022-08-03T07:27:07;4.03;;;2.53;;
17363;SDS011;8799;43.594;13.526;2022-08-03T07:29:37;5.67;;;2.70;;
17363;SDS011;8799;43.594;13.526;2022-08-03T07:32:04;2.53;;;2.33;;
17363;SDS011;8799;43.594;13.526;2022-08-03T07:34:33;3.40;;;2.63;;
17363;SDS011;8799;43.594;13.526;2022-08-03T07:37:00;4.17;;;2.33;;
17363;SDS011;8799;43.594;13.526;2022-08-03T07:39:28;3.03;;;2.53;;
17363;SDS011;8799;43.594;13.526;2022-08-03T07:41:56;3.50;;;2.43;;
17363;SDS011;8799;43.594;13.526;2022-08-03T07:44:24;3.60;;;2.70;;
17363;SDS011;8799;43.594;13.526;2022-08-03T07:46:53;5.80;;;2.90;;
17363;SDS011;8799;43.594;13.526;2022-08-03T07:49:21;4.13;;;3.00;;
17363;SDS011;8799;43.594;13.526;2022-08-03T07:51:49;3.67;;;2.53;;
17363;SDS011;8799;43.594;13.526;2022-08-03T07:54:30;4.90;;;2.77;;
17363;SDS011;8799;43.594;13.526;2022-08-03T07:56:57;3.43;;;2.60;;
17363;SDS011;8799;43.594;13.526;2022-08-03T07:59:26;4.43;;;2.47;;
17363;SDS011;8799;43.594;13.526;2022-08-03T08:01:55;2.93;;;2.67;;
17363;SDS011;8799;43.594;13.526;2022-08-03T08:04:23;3.33;;;2.73;;
17363;SDS011;8799;43.594;13.526;2022-08-03T08:06:50;3.77;;;2.83;;
17363;SDS011;8799;43.594;13.526;2022-08-03T08:09:18;5.20;;;2.60;;
17363;SDS011;8799;43.594;13.526;2022-08-03T08:11:46;8.67;;;3.17;;
17363;SDS011;8799;43.594;13.526;2022-08-03T08:14:13;3.67;;;2.70;;
17363;SDS011;8799;43.594;13.526;2022-08-03T08:16:41;3.77;;;2.90;;
17363;SDS011;8799;43.594;13.526;2022-08-03T08:19:10;5.47;;;2.80;;
17363;SDS011;8799;43.594;13.526;2022-08-03T08:21:38;4.27;;;3.00;;
17363;SDS011;8799;43.594;13.526;2022-08-03T08:24:06;3.90;;;2.97;;
17363;SDS011;8799;43.594;13.526;2022-08-03T08:26:34;2.93;;;2.63;;
17363;SDS011;8799;43.594;13.526;2022-08-03T08:29:01;3.10;;;2.80;;
17363;SDS011;8799;43.594;13.526;2022-08-03T08:31:29;6.10;;;2.90;;
17363;SDS011;8799;43.594;13.526;2022-08-03T08:33:57;7.23;;;2.90;;
17363;SDS011;8799;43.594;13.526;2022-08-03T08:36:26;7.20;;;3.10;;
17363;SDS011;8799;43.594;13.526;2022-08-03T08:38:53;7.40;;;3.10;;
17363;SDS011;8799;43.594;13.526;2022-08-03T08:41:21;5.13;;;2.80;;
17363;SDS011;8799;43.594;13.526;2022-08-03T08:43:48;5.13;;;3.03;;
17363;SDS011;8799;43.594;13.526;2022-08-03T08:46:16;5.63;;;3.33;;
17363;SDS011;8799;43.594;13.526;2022-08-03T08:48:45;5.03;;;3.20;;
17363;SDS011;8799;43.594;13.526;2022-08-03T08:51:15;5.17;;;3.17;;
17363;SDS011;8799;43.594;13.526;2022-08-03T08:53:49;3.73;;;3.03;;
17363;SDS011;8799;43.594;13.526;2022-08-03T08:56:19;4.50;;;3.33;;
17363;SDS011;8799;43.594;13.526;2022-08-03T08:58:50;4.70;;;3.23;;
17363;SDS011;8799;43.594;13.526;2022-08-03T09:01:20;4.23;;;3.00;;
17363;SDS011;8799;43.594;13.526;2022-08-03T09:03:52;4.13;;;3.10;;
17363;SDS011;8799;43.594;13.526;2022-08-03T09:06:19;5.70;;;3.33;;
17363;SDS011;8799;43.594;13.526;2022-08-03T09:08:49;5.10;;;3.10;;
17363;SDS011;8799;43.594;13.526;2022-08-03T09:11:19;4.00;;;3.00;;
17363;SDS011;8799;43.594;13.526;2022-08-03T09:13:48;5.90;;;3.30;;
17363;SDS011;8799;43.594;13.526;2022-08-03T09:16:17;4.57;;;2.73;;
17363;SDS011;8799;43.594;13.526;2022-08-03T09:18:46;4.40;;;3.27;;
17363;SDS011;8799;43.594;13.526;2022-08-03T09:21:16;5.03;;;3.50;;
17363;SDS011;8799;43.594;13.526;2022-08-03T09:23:46;3.43;;;3.13;;
17363;SDS011;8799;43.594;13.526;2022-08-03T09:26:20;4.53;;;3.00;;
17363;SDS011;8799;43.594;13.526;2022-08-03T09:28:55;4.03;;;3.03;;
17363;SDS011;8799;43.594;13.526;2022-08-03T09:31:31;3.57;;;2.97;;
17363;SDS011;8799;43.594;13.526;2022-08-03T09:34:00;5.17;;;3.27;;
17363;SDS011;8799;43.594;13.526;2022-08-03T09:36:32;4.37;;;3.13;;
17363;SDS011;8799;43.594;13.526;2022-08-03T09:39:03;6.00;;;3.30;;
17363;SDS011;8799;43.594;13.526;2022-08-03T09:41:35;4.13;;;3.03;;
17363;SDS011;8799;43.594;13.526;2022-08-03T09:44:03;7.20;;;3.03;;
17363;SDS011;8799;43.594;13.526;2022-08-03T09:46:31;3.90;;;2.93;;
17363;SDS011;8799;43.594;13.526;2022-08-03T09:49:13;5.90;;;3.03;;
17363;SDS011;8799;43.594;13.526;2022-08-03T09:51:40;5.40;;;3.30;;
17363;SDS011;8799;43.594;13.526;2022-08-03T09:54:09;5.03;;;3.37;;
17363;SDS011;8799;43.594;13.526;2022-08-03T09:56:38;4.37;;;2.97;;
17363;SDS011;8799;43.594;13.526;2022-08-03T09:59:06;7.50;;;3.60;;
17363;SDS011;8799;43.594;13.526;2022-08-03T10:01:35;4.83;;;3.10;;
17363;SDS011;8799;43.594;13.526;2022-08-03T10:04:05;7.40;;;3.50;;
17363;SDS011;8799;43.594;13.526;2022-08-03T10:06:39;4.87;;;3.10;;
17363;SDS011;8799;43.594;13.526;2022-08-03T10:09:08;7.33;;;3.30;;
17363;SDS011;8799;43.594;13.526;2022-08-03T10:11:38;6.30;;;3.37;;
17363;SDS011;8799;43.594;13.526;2022-08-03T10:14:08;3.70;;;3.07;;
17363;SDS011;8799;43.594;13.526;2022-08-03T10:16:42;5.23;;;2.90;;
17363;SDS011;8799;43.594;13.526;2022-08-03T10:19:11;5.43;;;3.00;;
17363;SDS011;8799;43.594;13.526;2022-08-03T10:21:40;5.20;;;2.60;;
17363;SDS011;8799;43.594;13.526;2022-08-03T10:24:13;5.13;;;2.90;;
17363;SDS011;8799;43.594;13.526;2022-08-03T10:26:46;3.90;;;2.77;;
17363;SDS011;8799;43.594;13.526;2022-08-03T10:29:17;5.87;;;2.50;;
17363;SDS011;8799;43.594;13.526;2022-08-03T10:31:49;4.10;;;2.70;;
17363;SDS011;8799;43.594;13.526;2022-08-03T10:34:22;3.23;;;2.53;;
17363;SDS011;8799;43.594;13.526;2022-08-03T10:36:55;4.53;;;2.60;;
17363;SDS011;8799;43.594;13.526;2022-08-03T10:39:26;3.80;;;2.60;;
17363;SDS011;8799;43.594;13.526;2022-08-03T10:41:55;2.83;;;2.50;;
17363;SDS011;8799;43.594;13.526;2022-08-03T10:44:25;3.30;;;2.40;;
17363;SDS011;8799;43.594;13.526;2022-08-03T10:46:57;3.10;;;2.47;;
17363;SDS011;8799;43.594;13.526;2022-08-03T10:49:26;3.00;;;2.33;;
17363;SDS011;8799;43.594;13.526;2022-08-03T10:51:54;3.43;;;2.37;;
17363;SDS011;8799;43.594;13.526;2022-08-03T10:54:40;2.40;;;2.17;;
17363;SDS011;8799;43.594;13.526;2022-08-03T10:57:41;7.23;;;2.63;;
17363;SDS011;8799;43.594;13.526;2022-08-03T11:00:13;3.30;;;2.50;;
17363;SDS011;8799;43.594;13.526;2022-08-03T11:05:29;3.07;;;2.50;;
17363;SDS011;8799;43.594;13.526;2022-08-03T11:08:17;5.07;;;2.20;;
17363;SDS011;8799;43.594;13.526;2022-08-03T11:10:58;4.67;;;2.80;;
17363;SDS011;8799;43.594;13.526;2022-08-03T11:13:27;2.80;;;2.40;;
17363;SDS011;8799;43.594;13.526;2022-08-03T11:15:59;2.27;;;2.07;;
17363;SDS011;8799;43.594;13.526;2022-08-03T11:18:29;2.33;;;2.13;;
17363;SDS011;8799;43.594;13.526;2022-08-03T11:20:58;4.47;;;2.23;;
17363;SDS011;8799;43.594;13.526;2022-08-03T11:23:42;3.50;;;2.30;;
17363;SDS011;8799;43.594;13.526;2022-08-03T11:29:06;3.10;;;2.50;;
17363;SDS011;8799;43.594;13.526;2022-08-03T11:31:55;2.87;;;2.40;;
17363;SDS011;8799;43.594;13.526;2022-08-03T11:34:23;2.47;;;2.10;;
17363;SDS011;8799;43.594;13.526;2022-08-03T11:39:46;4.93;;;2.20;;
17363;SDS011;8799;43.594;13.526;2022-08-03T11:45:08;3.20;;;2.20;;
17363;SDS011;8799;43.594;13.526;2022-08-03T11:47:36;3.07;;;2.40;;
17363;SDS011;8799;43.594;13.526;2022-08-03T11:50:05;3.20;;;2.40;;
17363;SDS011;8799;43.594;13.526;2022-08-03T11:52:36;2.57;;;2.00;;
17363;SDS011;8799;43.594;13.526;2022-08-03T11:55:09;5.20;;;2.10;;
17363;SDS011;8799;43.594;13.526;2022-08-03T11:57:40;3.80;;;2.07;;
17363;SDS011;8799;43.594;13.526;2022-08-03T12:00:22;2.83;;;2.30;;
17363;SDS011;8799;43.594;13.526;2022-08-03T12:05:44;3.73;;;2.07;;
17363;SDS011;8799;43.594;13.526;2022-08-03T12:08:14;2.67;;;2.13;;
17363;SDS011;8799;43.594;13.526;2022-08-03T12:10:48;3.00;;;2.03;;
17363;SDS011;8799;43.594;13.526;2022-08-03T12:13:18;5.20;;;2.10;;
17363;SDS011;8799;43.594;13.526;2022-08-03T12:15:50;2.73;;;2.20;;
17363;SDS011;8799;43.594;13.526;2022-08-03T12:18:20;5.50;;;2.73;;
17363;SDS011;8799;43.594;13.526;2022-08-03T12:20:48;2.63;;;2.23;;
17363;SDS011;8799;43.594;13.526;2022-08-03T12:23:17;4.93;;;2.63;;
17363;SDS011;8799;43.594;13.526;2022-08-03T12:25:45;2.73;;;2.40;;
17363;SDS011;8799;43.594;13.526;2022-08-03T12:28:14;2.50;;;1.97;;
17363;SDS011;8799;43.594;13.526;2022-08-03T12:30:45;2.40;;;2.20;;
17363;SDS011;8799;43.594;13.526;2022-08-03T12:33:18;2.63;;;2.20;;
17363;SDS011;8799;43.594;13.526;2022-08-03T12:35:49;6.03;;;2.43;;
17363;SDS011;8799;43.594;13.526;2022-08-03T12:38:32;2.80;;;2.20;;
17363;SDS011;8799;43.594;13.526;2022-08-03T12:41:03;3.23;;;2.13;;
17363;SDS011;8799;43.594;13.526;2022-08-03T12:43:32;3.17;;;2.23;;
17363;SDS011;8799;43.594;13.526;2022-08-03T12:46:12;3.90;;;2.13;;
17363;SDS011;8799;43.594;13.526;2022-08-03T12:48:56;3.67;;;2.40;;
17363;SDS011;8799;43.594;13.526;2022-08-03T12:51:25;3.40;;;2.23;;
17363;SDS011;8799;43.594;13.526;2022-08-03T12:53:53;3.13;;;2.50;;
17363;SDS011;8799;43.594;13.526;2022-08-03T12:56:22;4.27;;;2.20;;
17363;SDS011;8799;43.594;13.526;2022-08-03T12:58:50;4.83;;;2.20;;
17363;SDS011;8799;43.594;13.526;2022-08-03T13:01:20;3.20;;;2.50;;
17363;SDS011;8799;43.594;13.526;2022-08-03T13:03:50;4.10;;;2.10;;
17363;SDS011;8799;43.594;13.526;2022-08-03T13:06:19;4.17;;;2.63;;
17363;SDS011;8799;43.594;13.526;2022-08-03T13:08:49;2.73;;;2.33;;
17363;SDS011;8799;43.594;13.526;2022-08-03T13:11:29;2.60;;;2.40;;
17363;SDS011;8799;43.594;13.526;2022-08-03T13:13:56;3.67;;;2.10;;
17363;SDS011;8799;43.594;13.526;2022-08-03T13:16:26;3.10;;;2.47;;
17363;SDS011;8799;43.594;13.526;2022-08-03T13:18:53;4.47;;;2.50;;
17363;SDS011;8799;43.594;13.526;2022-08-03T13:21:22;3.70;;;2.47;;
17363;SDS011;8799;43.594;13.526;2022-08-03T13:23:50;4.93;;;2.50;;
17363;SDS011;8799;43.594;13.526;2022-08-03T13:26:18;3.57;;;2.27;;
17363;SDS011;8799;43.594;13.526;2022-08-03T13:28:45;2.50;;;2.17;;
17363;SDS011;8799;43.594;13.526;2022-08-03T13:31:14;6.90;;;2.60;;
17363;SDS011;8799;43.594;13.526;2022-08-03T13:33:43;3.57;;;2.40;;
17363;SDS011;8799;43.594;13.526;2022-08-03T13:36:11;4.13;;;2.30;;
17363;SDS011;8799;43.594;13.526;2022-08-03T13:38:38;3.37;;;2.40;;
17363;SDS011;8799;43.594;13.526;2022-08-03T13:41:05;2.27;;;2.07;;
17363;SDS011;8799;43.594;13.526;2022-08-03T13:43:33;3.43;;;2.30;;
17363;SDS011;8799;43.594;13.526;2022-08-03T13:46:00;2.77;;;2.47;;
17363;SDS011;8799;43.594;13.526;2022-08-03T13:48:28;2.37;;;2.13;;
17363;SDS011;8799;43.594;13.526;2022-08-03T13:50:57;3.90;;;2.30;;
17363;SDS011;8799;43.594;13.526;2022-08-03T13:53:25;2.43;;;2.23;;
17363;SDS011;8799;43.594;13.526;2022-08-03T13:55:52;7.07;;;2.23;;
17363;SDS011;8799;43.594;13.526;2022-08-03T13:58:21;4.50;;;2.30;;
17363;SDS011;8799;43.594;13.526;2022-08-03T14:00:49;2.20;;;2.00;;
17363;SDS011;8799;43.594;13.526;2022-08-03T14:03:17;7.43;;;2.43;;
17363;SDS011;8799;43.594;13.526;2022-08-03T14:05:44;4.13;;;2.30;;
17363;SDS011;8799;43.594;13.526;2022-08-03T14:08:13;3.10;;;2.03;;
17363;SDS011;8799;43.594;13.526;2022-08-03T14:10:41;2.63;;;2.13;;
17363;SDS011;8799;43.594;13.526;2022-08-03T14:13:10;2.93;;;2.50;;
17363;SDS011;8799;43.594;13.526;2022-08-03T14:15:39;2.43;;;2.23;;
17363;SDS011;8799;43.594;13.526;2022-08-03T14:18:07;4.37;;;2.40;;
17363;SDS011;8799;43.594;13.526;2022-08-03T14:20:35;3.97;;;2.13;;
17363;SDS011;8799;43.594;13.526;2022-08-03T14:23:03;3.83;;;2.40;;
17363;SDS011;8799;43.594;13.526;2022-08-03T14:25:34;2.63;;;2.30;;
17363;SDS011;8799;43.594;13.526;2022-08-03T14:28:02;3.57;;;1.97;;
17363;SDS011;8799;43.594;13.526;2022-08-03T14:30:30;3.13;;;2.50;;
17363;SDS011;8799;43.594;13.526;2022-08-03T14:32:57;4.97;;;2.20;;
17363;SDS011;8799;43.594;13.526;2022-08-03T14:35:26;3.27;;;2.30;;
17363;SDS011;8799;43.594;13.526;2022-08-03T14:37:54;4.90;;;2.17;;
17363;SDS011;8799;43.594;13.526;2022-08-03T14:40:21;4.10;;;2.20;;
17363;SDS011;8799;43.594;13.526;2022-08-03T14:42:51;3.10;;;2.60;;
17363;SDS011;8799;43.594;13.526;2022-08-03T14:45:19;3.20;;;2.20;;
17363;SDS011;8799;43.594;13.526;2022-08-03T14:47:47;5.80;;;2.00;;
17363;SDS011;8799;43.594;13.526;2022-08-03T14:50:15;3.13;;;2.10;;
17363;SDS011;8799;43.594;13.526;2022-08-03T14:52:43;6.57;;;2.20;;
17363;SDS011;8799;43.594;13.526;2022-08-03T14:55:11;7.27;;;2.70;;
17363;SDS011;8799;43.594;13.526;2022-08-03T14:57:39;3.00;;;2.47;;
17363;SDS011;8799;43.594;13.526;2022-08-03T15:00:09;3.57;;;2.43;;
17363;SDS011;8799;43.594;13.526;2022-08-03T15:02:37;4.83;;;2.30;;
17363;SDS011;8799;43.594;13.526;2022-08-03T15:05:05;2.93;;;2.40;;
17363;SDS011;8799;43.594;13.526;2022-08-03T15:07:34;3.10;;;2.50;;
17363;SDS011;8799;43.594;13.526;2022-08-03T15:10:02;3.20;;;2.43;;
17363;SDS011;8799;43.594;13.526;2022-08-03T15:12:30;3.17;;;2.57;;
17363;SDS011;8799;43.594;13.526;2022-08-03T15:15:02;2.30;;;1.97;;
17363;SDS011;8799;43.594;13.526;2022-08-03T15:17:32;2.93;;;2.10;;
17363;SDS011;8799;43.594;13.526;2022-08-03T15:20:00;3.20;;;2.50;;
17363;SDS011;8799;43.594;13.526;2022-08-03T15:22:28;5.23;;;2.23;;
17363;SDS011;8799;43.594;13.526;2022-08-03T15:24:57;5.10;;;2.00;;